Kezdőlap
METAR-TAF:

METAR-TAF

Repülőterek :

N’Djamena, Csád

földrajzi szélesség: 12-08N, földrajzi hosszúság: 015-02E, magasság: 295 m

Jelenlegi meteorológiai megfigyelések

A jelentés 1 órával és 0 perccel ezelõtt készült, 08:00 UTC
Észak-északkeleti szél 12 kt
Hőmérséklet 21°C
Páratartalom 23%
Légköri nyomás 1015 hPa
Látótávolság: 2500 m
kiterjedt por

METAR: FTTJ 200800Z 03012KT 2500 DU NSC 21/M01 Q1015 NOSIG

Idő: 10:00 (09:00 UTC)

Előrejelzés

A jelentés 4 órával és 0 perccel ezelõtt készült, 05:00 UTC
Az előrejelzés 20-én 06 óra UTC és 21-én 12 óra UTC között érvényes
Északkeleti szél 10 kt
Látótávolság: 2000 m
kiterjedt por
20-én 08 óra UTC és 20-én 10 óra UTC között fokozatosan kialakuló
Látótávolság: 6000 m
20-én 16 óra UTC és 20-én 19 óra UTC között ideiglenes
Látótávolság: 4000 m
kiterjedt por

TAF: FTTJ 200500Z 2006/2112 05010KT 2000 DU NSC BECMG 2008/2010 6000 NSW TEMPO 2016/2019 4000 DU

Meteorológiai megfigyelések és előrejelzések több, mint 4000 repülőtéren (METAR és TAF jelentéseket).

A térképen piros és sárga pontok jelzik az elérhető meteorológiai állomásokat.

Mozgassa az egeret a pont fölött, hogy megjelenjen az állomás neve.

Azután kattintson az időjárási megfigyelések és előrejelzések megtekintéséhez.

A térkép megváltoztatása: kattintson a fekete keresztel jelölt zöld gombra ráközelítéshez, a vonallal jelölt zöld gombra távolításhoz, vagy a zöld nyilakra a szomszédos térképek eléréséhez.


METAR-TAF: